Jamesville, NC

7:00 AM EST on December 11, 2019 (GMT -0500)
Cool Springs | | Change Station

Elev 39 ft 35.84 °N, 76.76 °W | Updated 4 seconds ago

Overcast
Overcast
46 °F
Feels Like 46 °F
N
1.79
Wind Variable Wind from SSE
Gusts 2.5 mph

Today
High -- | Low -- °F
--% Chance of Precip.
Yesterday
High -- | Low -- °F
Precip. -- in
Pressure 30.26 in
Visibility 5.0 miles
Clouds Mostly Cloudy 700 ft
Overcast 1000 ft
Windchill 46 °F
Dew Point 45 °F
Humidity 97%
Rainfall 0.14 in
Snow Depth Not available.
7:07 AM 4:54 PM
Waxing Gibbous, 99% visible
METAR KOCW 111155Z AUTO 33007KT 5SM DZ BKN007 OVC010 08/07 A3026 RMK AO2 60004 70004 T00810072 10136 20081
Pressure 30.26 in
Visibility 5.0 miles
Clouds Mostly Cloudy 700 ft
Overcast 1000 ft
Windchill 46 °F
Dew Point 45 °F
Humidity 97%
Rainfall 0.14 in
Snow Depth Not available.
7:07 AM 4:54 PM
Waxing Gibbous, 99% visible
METAR KOCW 111155Z AUTO 33007KT 5SM DZ BKN007 OVC010 08/07 A3026 RMK AO2 60004 70004 T00810072 10136 20081

Get Severe Weather Alerts

Thanks for signing up!

Be on the lookout for a verification email in your inbox.

You'll start receiving the daily forecast at 6 AM.

×

10-Day Weather Forecast

Almanac

Astronomy

Dec. 11, 2019 Rise Set
Actual Time
Civil Twilight
Nautical Twilight
Astronomical Twilight
Moon
Length of Visible Light
Length of Day
Tomorrow will be .
, % of the Moon is Illuminated

Today's Extremes

State Highs State Lows

Community

WunderPhotos

Category 6

Welcome to Category 6. This is the collective home for Weather Underground's featured writeups by Dr. Jeff Masters (right), Bob Henson (left), Chris Burt, and other regular contributors.

Nearby

Air Quality

  Air Quality AQ Index Pollutant
Not available.

Snow Depth

Station Depth Elevation

Earthquake Activity

City Distance Mag. Time & Date
Minimum magnitude displayed is 2.5.

Coastal Water Temperatures

Place Temperature

Stations

Nearby Weather Stations

Station Location Temp. Windchill Dew Point Humidity Wind Precip. Elev Updated Type
                   

Watches & Warnings

There are currently no watches in effect.